Terminal Aerodrome Forecast
Issued by NWS

Home | Current Version | Previous Version | Text Only | Print | Product List | Glossary On
Versions: 1 2 3 4 5 6 7 8 9 10 11 12 13
159
FTUS46 KMTR 241129
TAFOAK
TAF
KOAK 241129Z 2412/2518 14014KT P6SM -SHRA SCT030 OVC070
     FM241700 15018G26KT P6SM -RA BKN025 OVC040
      TEMPO 2419/2423 4SM RA
     FM250100 20008KT P6SM -SHRA SCT030 BKN050
     FM250500 21005KT P6SM SCT050 BKN070
     FM251000 28003KT P6SM FEW030
     FM251500 30004KT P6SM SCT020 SCT200=

USA.gov is the U.S. government's official web portal to all federal, state and local government web resources and services.